createdAt,value
2022-11-26T00:00:57.015Z,6.56
2022-11-26T00:01:57.024Z,6.54
2022-11-26T00:02:57.063Z,6.54
2022-11-26T00:03:57.262Z,6.54
2022-11-26T00:04:56.990Z,6.54
2022-11-26T00:05:56.927Z,6.54
2022-11-26T00:06:57.984Z,6.54
2022-11-26T00:07:56.977Z,6.54
2022-11-26T00:08:56.883Z,6.53
2022-11-26T00:09:56.929Z,6.54
2022-11-26T00:10:57.462Z,6.56
2022-11-26T00:11:56.870Z,6.54
2022-11-26T00:12:56.875Z,6.54
2022-11-26T00:13:56.854Z,6.54
2022-11-26T00:14:56.853Z,6.54
2022-11-26T00:15:56.827Z,6.53
2022-11-26T00:16:56.851Z,6.53
2022-11-26T00:17:57.088Z,6.53
2022-11-26T00:18:56.838Z,6.50
2022-11-26T00:19:56.773Z,6.48
2022-11-26T00:20:56.759Z,6.48
2022-11-26T00:21:56.745Z,6.48
2022-11-26T00:22:56.993Z,6.47
2022-11-26T00:23:56.746Z,6.47
2022-11-26T00:24:57.057Z,6.44
2022-11-26T00:25:56.757Z,6.44
2022-11-26T00:26:56.743Z,6.44
2022-11-26T00:27:56.688Z,6.44
2022-11-26T00:28:56.747Z,6.44
2022-11-26T00:29:56.672Z,6.43
2022-11-26T00:30:56.701Z,6.41
2022-11-26T00:31:57.018Z,6.41
2022-11-26T00:32:56.672Z,6.40
2022-11-26T00:33:56.693Z,6.40
2022-11-26T00:34:56.705Z,6.36
2022-11-26T00:35:56.620Z,6.36
2022-11-26T00:36:56.648Z,6.36
2022-11-26T00:37:56.618Z,6.35
2022-11-26T00:38:56.853Z,6.35
2022-11-26T00:39:56.552Z,6.35
2022-11-26T00:40:56.564Z,6.33
2022-11-26T00:41:56.662Z,6.32
2022-11-26T00:43:01.477Z,6.32
2022-11-26T00:43:56.529Z,6.30
2022-11-26T00:44:56.560Z,6.32
2022-11-26T00:45:56.877Z,6.30
2022-11-26T00:46:56.587Z,6.30
2022-11-26T00:47:56.499Z,6.30
2022-11-26T00:48:56.502Z,6.30
2022-11-26T00:49:56.460Z,6.30
2022-11-26T00:50:56.497Z,6.30
2022-11-26T00:51:56.442Z,6.30
2022-11-26T00:52:56.700Z,6.32
2022-11-26T00:53:56.435Z,6.33
2022-11-26T00:54:56.442Z,6.32
2022-11-26T00:55:56.423Z,6.30
2022-11-26T00:56:56.393Z,6.32
2022-11-26T00:57:56.365Z,6.32
2022-11-26T00:58:56.357Z,6.32
2022-11-26T00:59:56.642Z,6.33
2022-11-26T01:00:56.439Z,6.32
2022-11-26T01:01:56.361Z,6.33
2022-11-26T01:02:56.305Z,6.32
2022-11-26T01:03:56.299Z,6.32
2022-11-26T01:04:56.531Z,6.32
2022-11-26T01:05:56.297Z,6.32
2022-11-26T01:06:56.580Z,6.30
2022-11-26T01:07:56.295Z,6.30
2022-11-26T01:08:56.255Z,6.29
2022-11-26T01:09:56.246Z,6.30
2022-11-26T01:10:56.222Z,6.28
2022-11-26T01:11:56.219Z,6.29
2022-11-26T01:12:56.252Z,6.26
2022-11-26T01:13:56.527Z,6.26
2022-11-26T01:14:56.172Z,6.25
2022-11-26T01:15:56.173Z,6.26
2022-11-26T01:16:56.321Z,6.22
2022-11-26T01:17:56.152Z,6.21
2022-11-26T01:18:56.171Z,6.22
2022-11-26T01:19:56.467Z,6.21
2022-11-26T01:20:56.424Z,6.19
2022-11-26T01:21:56.128Z,6.18
2022-11-26T01:22:56.097Z,6.18
2022-11-26T01:23:56.087Z,6.19
2022-11-26T01:24:56.130Z,6.18
2022-11-26T01:25:56.070Z,6.16
2022-11-26T01:26:56.117Z,6.18
2022-11-26T01:27:56.331Z,6.16
2022-11-26T01:28:56.034Z,6.16
2022-11-26T01:29:56.022Z,6.14
2022-11-26T01:30:56.052Z,6.16
2022-11-26T01:31:56.062Z,6.16
2022-11-26T01:32:56.067Z,6.13
2022-11-26T01:33:55.983Z,6.11
2022-11-26T01:34:56.246Z,6.11
2022-11-26T01:35:55.963Z,6.11
2022-11-26T01:36:55.971Z,6.11
2022-11-26T01:37:55.944Z,6.11
2022-11-26T01:38:55.941Z,6.09
2022-11-26T01:39:55.918Z,6.09
2022-11-26T01:40:55.902Z,6.10
2022-11-26T01:41:56.190Z,6.07
2022-11-26T01:42:55.925Z,6.09
2022-11-26T01:43:55.878Z,6.09
2022-11-26T01:44:55.853Z,6.06
2022-11-26T01:45:55.911Z,6.06
2022-11-26T01:46:55.828Z,6.07
2022-11-26T01:47:55.829Z,6.04
2022-11-26T01:48:56.169Z,6.07
2022-11-26T01:49:55.813Z,6.06
2022-11-26T01:50:55.791Z,6.04
2022-11-26T01:51:55.783Z,6.04
2022-11-26T01:52:55.773Z,6.04
2022-11-26T01:53:55.766Z,6.03
2022-11-26T01:54:55.777Z,6.04
2022-11-26T01:55:56.034Z,6.01
2022-11-26T01:56:55.730Z,6.01
2022-11-26T01:57:55.722Z,6.01
2022-11-26T01:58:55.712Z,6.01
2022-11-26T01:59:55.714Z,6.01
2022-11-26T02:00:55.775Z,6.01
2022-11-26T02:01:55.731Z,6.00
2022-11-26T02:02:55.972Z,6.01
2022-11-26T02:03:55.666Z,6.03
2022-11-26T02:04:55.642Z,6.01
2022-11-26T02:05:55.641Z,6.03
2022-11-26T02:06:55.656Z,6.03
2022-11-26T02:07:55.709Z,6.01
2022-11-26T02:08:55.617Z,6.03
2022-11-26T02:09:55.873Z,6.01
2022-11-26T02:10:55.583Z,6.04
2022-11-26T02:11:55.574Z,6.04
2022-11-26T02:12:55.887Z,6.06
2022-11-26T02:13:55.579Z,6.06
2022-11-26T02:14:55.559Z,6.06
2022-11-26T02:15:55.544Z,6.07
2022-11-26T02:16:55.979Z,6.09
2022-11-26T02:17:55.518Z,6.07
2022-11-26T02:18:55.522Z,6.09
2022-11-26T02:19:55.511Z,6.07
2022-11-26T02:20:55.475Z,6.09
2022-11-26T02:21:55.464Z,6.09
2022-11-26T02:22:55.459Z,6.07
2022-11-26T02:23:55.722Z,6.10
2022-11-26T02:24:55.464Z,6.10
2022-11-26T02:25:55.426Z,6.10
2022-11-26T02:26:55.406Z,6.10
2022-11-26T02:27:55.404Z,6.09
2022-11-26T02:28:55.381Z,6.09
2022-11-26T02:29:55.380Z,6.07
2022-11-26T02:30:55.394Z,6.06
2022-11-26T02:31:55.445Z,6.06
2022-11-26T02:32:55.367Z,6.04
2022-11-26T02:33:55.348Z,6.04
2022-11-26T02:34:55.347Z,6.03
2022-11-26T02:35:55.620Z,6.04
2022-11-26T02:36:55.337Z,6.03
2022-11-26T02:37:55.299Z,6.03
2022-11-26T02:38:55.272Z,6.01
2022-11-26T02:39:55.281Z,6.01
2022-11-26T02:40:55.264Z,5.98
2022-11-26T02:41:55.255Z,5.96
2022-11-26T02:42:55.261Z,5.95
2022-11-26T02:43:55.261Z,5.96
2022-11-26T02:44:55.217Z,5.93
2022-11-26T02:45:55.281Z,5.92
2022-11-26T02:46:55.319Z,5.92
2022-11-26T02:47:55.468Z,5.89
2022-11-26T02:48:55.206Z,5.88
2022-11-26T02:49:55.162Z,5.88
2022-11-26T02:50:55.153Z,5.89
2022-11-26T02:51:55.149Z,5.88
2022-11-26T02:52:55.131Z,5.85
2022-11-26T02:53:55.127Z,5.85
2022-11-26T02:54:55.439Z,5.83
2022-11-26T02:55:55.110Z,5.82
2022-11-26T02:56:55.092Z,5.82
2022-11-26T02:57:55.080Z,5.81
2022-11-26T02:58:55.080Z,5.82
2022-11-26T02:59:55.063Z,5.82
2022-11-26T03:00:55.157Z,5.82
2022-11-26T03:01:55.324Z,5.78
2022-11-26T03:02:55.018Z,5.81
2022-11-26T03:03:55.100Z,5.78
2022-11-26T03:04:55.002Z,5.78
2022-11-26T03:05:54.999Z,5.77
2022-11-26T03:06:55.030Z,5.74
2022-11-26T03:07:55.104Z,5.67
2022-11-26T03:08:55.244Z,5.66
2022-11-26T03:09:54.959Z,5.64
2022-11-26T03:10:54.934Z,5.64
2022-11-26T03:11:55.020Z,5.60
2022-11-26T03:12:54.940Z,5.59
2022-11-26T03:13:55.007Z,5.59
2022-11-26T03:14:54.899Z,5.56
2022-11-26T03:15:55.202Z,5.57
2022-11-26T03:16:54.937Z,5.56
2022-11-26T03:17:54.869Z,5.59
2022-11-26T03:18:54.924Z,5.59
2022-11-26T03:19:54.859Z,5.57
2022-11-26T03:20:54.839Z,5.59
2022-11-26T03:21:54.837Z,5.59
2022-11-26T03:22:55.102Z,5.57
2022-11-26T03:23:54.813Z,5.57
2022-11-26T03:24:54.844Z,5.59
2022-11-26T03:25:54.811Z,5.59
2022-11-26T03:26:54.775Z,5.56
2022-11-26T03:27:54.763Z,5.55
2022-11-26T03:28:54.745Z,5.56
2022-11-26T03:29:55.032Z,5.56
2022-11-26T03:30:54.846Z,5.57
2022-11-26T03:31:54.735Z,5.56
2022-11-26T03:32:54.729Z,5.56
2022-11-26T03:33:54.700Z,5.55
2022-11-26T03:34:54.677Z,5.55
2022-11-26T03:35:54.675Z,5.55
2022-11-26T03:36:54.979Z,5.56
2022-11-26T03:37:54.662Z,5.55
2022-11-26T03:38:54.642Z,5.57
2022-11-26T03:39:54.634Z,5.57
2022-11-26T03:40:54.619Z,5.56
2022-11-26T03:41:54.615Z,5.59
2022-11-26T03:42:54.646Z,5.60
2022-11-26T03:43:54.867Z,5.60
2022-11-26T03:44:54.576Z,5.64
2022-11-26T03:45:54.681Z,5.63
2022-11-26T03:46:54.562Z,5.60
2022-11-26T03:47:54.539Z,5.59
2022-11-26T03:48:54.573Z,5.59
2022-11-26T03:49:54.538Z,5.57
2022-11-26T03:50:54.797Z,5.57
2022-11-26T03:51:54.498Z,5.59
2022-11-26T03:52:54.494Z,5.57
2022-11-26T03:53:54.492Z,5.57
2022-11-26T03:54:54.522Z,5.56
2022-11-26T03:55:54.467Z,5.56
2022-11-26T03:56:54.455Z,5.57
2022-11-26T03:57:54.731Z,5.57
2022-11-26T03:58:54.437Z,5.60
2022-11-26T03:59:54.413Z,5.59
2022-11-26T04:00:54.431Z,5.59
2022-11-26T04:01:54.460Z,5.59
2022-11-26T04:02:54.461Z,5.59
2022-11-26T04:03:54.373Z,5.63
2022-11-26T04:04:54.658Z,5.63
2022-11-26T04:05:54.350Z,5.64
2022-11-26T04:06:54.377Z,5.66
2022-11-26T04:07:54.449Z,5.66
2022-11-26T04:08:54.337Z,5.64
2022-11-26T04:09:54.316Z,5.66
2022-11-26T04:10:54.315Z,5.66
2022-11-26T04:11:54.567Z,5.66
2022-11-26T04:12:54.323Z,5.68
2022-11-26T04:13:54.284Z,5.68
2022-11-26T04:14:54.260Z,5.70
2022-11-26T04:15:54.246Z,5.71
2022-11-26T04:16:54.299Z,5.71
2022-11-26T04:17:54.247Z,5.71
2022-11-26T04:18:54.560Z,5.70
2022-11-26T04:19:54.208Z,5.71
2022-11-26T04:20:54.201Z,5.73
2022-11-26T04:21:54.205Z,5.71
2022-11-26T04:22:54.186Z,5.73
2022-11-26T04:23:54.160Z,5.74
2022-11-26T04:24:54.517Z,5.73
2022-11-26T04:25:54.429Z,5.73
2022-11-26T04:26:54.137Z,5.75
2022-11-26T04:27:54.130Z,5.77
2022-11-26T04:28:54.117Z,5.77
2022-11-26T04:29:54.105Z,5.77
2022-11-26T04:30:54.171Z,5.77
2022-11-26T04:31:54.151Z,5.81
2022-11-26T04:32:54.358Z,5.78
2022-11-26T04:33:54.055Z,5.78
2022-11-26T04:34:54.052Z,5.78
2022-11-26T04:35:54.043Z,5.81
2022-11-26T04:36:54.073Z,5.81
2022-11-26T04:37:54.012Z,5.81
2022-11-26T04:38:54.021Z,5.81
2022-11-26T04:39:54.296Z,5.78
2022-11-26T04:40:54.015Z,5.78
2022-11-26T04:41:53.976Z,5.78
2022-11-26T04:42:54.003Z,5.77
2022-11-26T04:43:53.946Z,5.77
2022-11-26T04:44:53.944Z,5.75
2022-11-26T04:45:54.008Z,5.75
2022-11-26T04:46:54.214Z,5.74
2022-11-26T04:47:53.928Z,5.74
2022-11-26T04:48:53.941Z,5.73
2022-11-26T04:49:53.894Z,5.71
2022-11-26T04:50:53.880Z,5.73
2022-11-26T04:51:53.873Z,5.71
2022-11-26T04:52:53.860Z,5.70
2022-11-26T04:53:55.962Z,5.70
2022-11-26T04:54:53.869Z,5.70
2022-11-26T04:55:53.825Z,5.70
2022-11-26T04:56:53.823Z,5.70
2022-11-26T04:57:53.801Z,5.70
2022-11-26T04:58:53.793Z,5.68
2022-11-26T04:59:53.787Z,5.68
2022-11-26T05:00:54.118Z,5.68
2022-11-26T05:01:53.766Z,5.67
2022-11-26T05:02:53.789Z,5.67
2022-11-26T05:03:53.739Z,5.67
2022-11-26T05:04:53.747Z,5.67
2022-11-26T05:05:53.721Z,5.66
2022-11-26T05:06:53.759Z,5.64
2022-11-26T05:07:54.068Z,5.66
2022-11-26T05:08:53.717Z,5.64
2022-11-26T05:09:53.682Z,5.64
2022-11-26T05:10:53.712Z,5.63
2022-11-26T05:11:53.653Z,5.60
2022-11-26T05:12:53.703Z,5.60
2022-11-26T05:13:53.639Z,5.63
2022-11-26T05:14:53.911Z,5.63
2022-11-26T05:15:53.621Z,5.59
2022-11-26T05:16:53.677Z,5.59
2022-11-26T05:17:53.603Z,5.60
2022-11-26T05:18:53.619Z,5.60
2022-11-26T05:19:53.573Z,5.60
2022-11-26T05:20:53.581Z,5.59
2022-11-26T05:21:53.836Z,5.59
2022-11-26T05:22:53.546Z,5.57
2022-11-26T05:23:53.526Z,5.57
2022-11-26T05:24:53.565Z,5.56
2022-11-26T05:25:53.519Z,5.56
2022-11-26T05:26:56.930Z,5.56
2022-11-26T05:27:53.512Z,5.53
2022-11-26T05:28:53.775Z,5.55
2022-11-26T05:29:53.464Z,5.56
2022-11-26T05:30:53.521Z,5.53
2022-11-26T05:31:53.548Z,5.53
2022-11-26T05:32:53.452Z,5.52
2022-11-26T05:33:53.420Z,5.52
2022-11-26T05:34:58.537Z,5.52
2022-11-26T05:35:53.411Z,5.49
2022-11-26T05:36:53.426Z,5.48
2022-11-26T05:37:53.402Z,5.43
2022-11-26T05:38:53.377Z,5.41
2022-11-26T05:39:53.354Z,5.41
2022-11-26T05:40:53.350Z,5.38
2022-11-26T05:41:53.624Z,5.38
2022-11-26T05:42:53.350Z,5.37
2022-11-26T05:43:53.315Z,5.37
2022-11-26T05:44:53.309Z,5.35
2022-11-26T05:45:53.359Z,5.34
2022-11-26T05:46:53.292Z,5.34
2022-11-26T05:47:53.283Z,5.34
2022-11-26T05:48:53.611Z,5.34
2022-11-26T05:49:53.251Z,5.35
2022-11-26T05:50:54.635Z,5.34
2022-11-26T05:51:53.237Z,5.34
2022-11-26T05:52:53.236Z,5.32
2022-11-26T05:53:53.218Z,5.34
2022-11-26T05:54:53.240Z,5.32
2022-11-26T05:55:53.467Z,5.31
2022-11-26T05:56:59.782Z,5.32
2022-11-26T05:57:53.177Z,5.32
2022-11-26T05:58:53.178Z,5.32
2022-11-26T05:59:53.144Z,5.30
2022-11-26T06:00:53.185Z,5.30
2022-11-26T06:01:53.182Z,5.28
2022-11-26T06:02:53.583Z,5.28
2022-11-26T06:03:53.126Z,5.28
2022-11-26T06:04:53.107Z,5.27
2022-11-26T06:05:53.083Z,5.25
2022-11-26T06:06:53.124Z,5.25
2022-11-26T06:07:53.105Z,5.23
2022-11-26T06:08:53.068Z,5.25
2022-11-26T06:09:53.315Z,5.25
2022-11-26T06:10:53.053Z,5.25
2022-11-26T06:11:53.009Z,5.25
2022-11-26T06:12:53.042Z,5.27
2022-11-26T06:13:53.006Z,5.23
2022-11-26T06:14:52.991Z,5.25
2022-11-26T06:15:52.970Z,5.22
2022-11-26T06:16:53.332Z,5.23
2022-11-26T06:17:52.959Z,5.22
2022-11-26T06:18:52.984Z,5.22
2022-11-26T06:19:52.948Z,5.22
2022-11-26T06:20:52.922Z,5.22
2022-11-26T06:21:52.911Z,5.19
2022-11-26T06:22:52.903Z,5.19
2022-11-26T06:23:59.135Z,5.19
2022-11-26T06:24:52.931Z,5.17
2022-11-26T06:25:52.872Z,5.19
2022-11-26T06:26:52.866Z,5.17
2022-11-26T06:27:52.845Z,5.20
2022-11-26T06:28:52.843Z,5.20
2022-11-26T06:29:52.832Z,5.19
2022-11-26T06:30:52.864Z,5.20
2022-11-26T06:31:52.858Z,5.19
2022-11-26T06:32:52.801Z,5.19
2022-11-26T06:33:52.814Z,5.17
2022-11-26T06:34:54.315Z,5.19
2022-11-26T06:35:53.035Z,5.20
2022-11-26T06:36:52.813Z,5.22
2022-11-26T06:37:52.742Z,5.20
2022-11-26T06:38:52.776Z,5.20
2022-11-26T06:39:52.743Z,5.19
2022-11-26T06:40:52.736Z,5.20
2022-11-26T06:41:52.709Z,5.22
2022-11-26T06:42:52.722Z,5.22
2022-11-26T06:43:52.683Z,5.22
2022-11-26T06:44:55.920Z,5.22
2022-11-26T06:45:52.693Z,5.20
2022-11-26T06:46:52.651Z,5.20
2022-11-26T06:47:52.938Z,5.20
2022-11-26T06:48:52.665Z,5.19
2022-11-26T06:49:52.617Z,5.19
2022-11-26T06:50:52.606Z,5.19
2022-11-26T06:51:52.600Z,5.20
2022-11-26T06:52:52.591Z,5.19
2022-11-26T06:53:52.588Z,5.17
2022-11-26T06:54:52.877Z,5.19
2022-11-26T06:55:52.557Z,5.17
2022-11-26T06:56:52.555Z,5.17
2022-11-26T06:57:52.563Z,5.16
2022-11-26T06:58:52.534Z,5.14
2022-11-26T06:59:52.524Z,5.13
2022-11-26T07:00:52.533Z,5.13
2022-11-26T07:01:52.907Z,5.13
2022-11-26T07:02:52.570Z,5.14
2022-11-26T07:03:52.469Z,5.16
2022-11-26T07:04:52.466Z,5.17
2022-11-26T07:05:52.470Z,5.17
2022-11-26T07:06:52.477Z,5.19
2022-11-26T07:07:52.491Z,5.19
2022-11-26T07:08:52.717Z,5.16
2022-11-26T07:09:52.406Z,5.19
2022-11-26T07:10:52.398Z,5.20
2022-11-26T07:11:52.396Z,5.22
2022-11-26T07:12:52.420Z,5.20
2022-11-26T07:13:52.373Z,5.20
2022-11-26T07:14:52.366Z,5.20
2022-11-26T07:15:52.712Z,5.22
2022-11-26T07:16:52.373Z,5.22
2022-11-26T07:17:52.319Z,5.22
2022-11-26T07:18:55.211Z,5.25
2022-11-26T07:19:52.329Z,5.25
2022-11-26T07:20:52.302Z,5.25
2022-11-26T07:21:52.296Z,5.22
2022-11-26T07:22:52.564Z,5.27
2022-11-26T07:23:52.268Z,5.23
2022-11-26T07:24:52.285Z,5.28
2022-11-26T07:25:52.238Z,5.30
2022-11-26T07:26:52.229Z,5.32
2022-11-26T07:27:52.218Z,5.30
2022-11-26T07:28:52.235Z,5.34
2022-11-26T07:29:52.233Z,5.34
2022-11-26T07:30:52.228Z,5.35
2022-11-26T07:31:52.268Z,5.35
2022-11-26T07:32:52.176Z,5.37
2022-11-26T07:33:52.160Z,5.40
2022-11-26T07:34:52.150Z,5.41
2022-11-26T07:35:52.429Z,5.45
2022-11-26T07:36:57.760Z,5.45
2022-11-26T07:37:52.124Z,5.49
2022-11-26T07:38:52.106Z,5.49
2022-11-26T07:39:52.100Z,5.50
2022-11-26T07:40:52.097Z,5.50
2022-11-26T07:41:52.091Z,5.52
2022-11-26T07:42:53.441Z,5.55
2022-11-26T07:43:52.055Z,5.52
2022-11-26T07:44:52.088Z,5.53
2022-11-26T07:45:52.061Z,5.55
2022-11-26T07:46:52.047Z,5.56
2022-11-26T07:47:52.030Z,5.56
2022-11-26T07:48:52.019Z,5.55
2022-11-26T07:49:52.298Z,5.56
2022-11-26T07:50:52.014Z,5.53
2022-11-26T07:51:51.972Z,5.56
2022-11-26T07:52:51.955Z,5.57
2022-11-26T07:53:51.945Z,5.53
2022-11-26T07:54:52.010Z,5.56
2022-11-26T07:55:51.925Z,5.55
2022-11-26T07:56:52.225Z,5.53
2022-11-26T07:57:51.915Z,5.52
2022-11-26T07:58:51.912Z,5.53
2022-11-26T07:59:51.888Z,5.52
2022-11-26T08:00:54.600Z,5.52
2022-11-26T08:01:51.928Z,5.53
2022-11-26T08:02:51.961Z,5.56
2022-11-26T08:03:52.153Z,5.56
2022-11-26T08:04:51.828Z,5.60
2022-11-26T08:05:51.855Z,5.59
2022-11-26T08:06:51.849Z,5.60
2022-11-26T08:07:51.855Z,5.57
2022-11-26T08:08:51.815Z,5.56
2022-11-26T08:09:51.792Z,5.57
2022-11-26T08:10:52.060Z,5.60
2022-11-26T08:11:51.754Z,5.59
2022-11-26T08:12:51.805Z,5.64
2022-11-26T08:13:51.739Z,5.59
2022-11-26T08:14:51.720Z,5.59
2022-11-26T08:15:51.830Z,5.63
2022-11-26T08:16:51.788Z,5.60
2022-11-26T08:17:51.990Z,5.64
2022-11-26T08:18:51.776Z,5.67
2022-11-26T08:19:51.695Z,5.66
2022-11-26T08:20:51.670Z,5.66
2022-11-26T08:21:51.671Z,5.64
2022-11-26T08:22:51.661Z,5.66
2022-11-26T08:23:51.636Z,5.66
2022-11-26T08:24:51.953Z,5.64
2022-11-26T08:26:14.569Z,5.67
2022-11-26T08:26:51.599Z,5.70
2022-11-26T08:27:51.606Z,5.71
2022-11-26T08:28:51.624Z,5.74
2022-11-26T08:29:51.575Z,5.78
2022-11-26T08:30:51.601Z,5.83
2022-11-26T08:31:51.954Z,5.85
2022-11-26T08:32:51.531Z,5.86
2022-11-26T08:33:51.556Z,5.88
2022-11-26T08:34:51.517Z,5.89
2022-11-26T08:36:06.263Z,5.88
2022-11-26T08:36:51.554Z,5.91
2022-11-26T08:37:51.503Z,5.93
2022-11-26T08:38:51.798Z,5.93
2022-11-26T08:39:51.476Z,5.95
2022-11-26T08:40:51.464Z,5.95
2022-11-26T08:41:52.683Z,5.96
2022-11-26T08:42:51.480Z,5.96
2022-11-26T08:44:08.085Z,6.00
2022-11-26T08:44:51.421Z,6.01
2022-11-26T08:45:51.777Z,5.98
2022-11-26T08:46:51.387Z,5.96
2022-11-26T08:47:51.398Z,5.96
2022-11-26T08:48:51.405Z,5.96
2022-11-26T08:49:51.380Z,6.00
2022-11-26T08:50:51.348Z,6.04
2022-11-26T08:51:51.346Z,6.04
2022-11-26T08:52:51.699Z,6.04
2022-11-26T08:53:51.341Z,6.06
2022-11-26T08:54:51.357Z,6.04
2022-11-26T08:56:00.125Z,6.07
2022-11-26T08:56:51.285Z,6.06
2022-11-26T08:57:51.306Z,6.04
2022-11-26T08:58:51.307Z,6.04
2022-11-26T08:59:51.253Z,6.06
2022-11-26T09:00:51.271Z,6.10
2022-11-26T09:01:51.348Z,6.10
2022-11-26T09:02:51.238Z,6.10
2022-11-26T09:03:52.150Z,6.10
2022-11-26T09:04:51.193Z,6.13
2022-11-26T09:05:51.510Z,6.13
2022-11-26T09:06:51.235Z,6.10
2022-11-26T09:07:51.302Z,6.11
2022-11-26T09:08:51.174Z,6.13
2022-11-26T09:09:51.187Z,6.13
2022-11-26T09:10:51.145Z,6.14
2022-11-26T09:11:51.162Z,6.14
2022-11-26T09:12:51.155Z,6.16
2022-11-26T09:13:51.129Z,6.18
2022-11-26T09:14:51.178Z,6.19
2022-11-26T09:15:51.111Z,6.22
2022-11-26T09:16:51.196Z,6.25
2022-11-26T09:17:51.338Z,6.28
2022-11-26T09:18:51.107Z,6.28
2022-11-26T09:19:51.036Z,6.30
2022-11-26T09:20:55.751Z,6.32
2022-11-26T09:21:51.053Z,6.32
2022-11-26T09:22:51.006Z,6.30
2022-11-26T09:23:50.995Z,6.35
2022-11-26T09:24:51.012Z,6.41
2022-11-26T09:25:50.984Z,6.48
2022-11-26T09:26:50.992Z,6.51
2022-11-26T09:27:50.985Z,6.51
2022-11-26T09:28:50.973Z,6.50
2022-11-26T09:29:51.221Z,6.54
2022-11-26T09:30:50.982Z,6.61
2022-11-26T09:32:51.001Z,6.61
2022-11-26T09:33:50.928Z,6.65
2022-11-26T09:34:50.876Z,6.73
2022-11-26T09:35:50.884Z,6.94
2022-11-26T09:36:51.191Z,7.24
2022-11-26T09:37:51.832Z,7.37
2022-11-26T09:38:50.869Z,7.60
2022-11-26T09:39:50.850Z,7.79
2022-11-26T09:40:50.844Z,7.77
2022-11-26T09:41:50.851Z,7.71
2022-11-26T09:42:50.878Z,7.89
2022-11-26T09:43:53.452Z,8.02
2022-11-26T09:44:50.888Z,8.08
2022-11-26T09:45:50.816Z,8.21
2022-11-26T09:47:11.058Z,8.29
2022-11-26T09:47:50.762Z,8.20
2022-11-26T09:48:50.776Z,8.11
2022-11-26T09:49:51.011Z,8.18
2022-11-26T09:50:51.639Z,8.26
2022-11-26T09:51:50.715Z,8.37
2022-11-26T09:52:50.711Z,8.37
2022-11-26T09:53:50.679Z,8.44
2022-11-26T09:54:50.724Z,8.55
2022-11-26T09:55:50.666Z,8.72
2022-11-26T09:56:50.938Z,8.68
2022-11-26T09:57:50.752Z,8.75
2022-11-26T09:58:50.644Z,8.75
2022-11-26T09:59:50.634Z,8.69
2022-11-26T10:00:50.727Z,8.72
2022-11-26T10:01:50.624Z,8.73
2022-11-26T10:02:50.586Z,8.72
2022-11-26T10:03:50.858Z,8.69
2022-11-26T10:04:50.553Z,8.73
2022-11-26T10:05:50.554Z,8.71
2022-11-26T10:06:50.618Z,8.60
2022-11-26T10:07:50.672Z,8.50
2022-11-26T10:08:50.526Z,8.55
2022-11-26T10:09:50.593Z,8.47
2022-11-26T10:10:50.778Z,8.40
2022-11-26T10:11:50.510Z,8.42
2022-11-26T10:13:17.475Z,8.36
2022-11-26T10:13:50.508Z,8.36
2022-11-26T10:14:50.468Z,8.36
2022-11-26T10:15:50.483Z,8.30
2022-11-26T10:16:50.522Z,8.25
2022-11-26T10:17:50.756Z,8.28
2022-11-26T10:18:50.488Z,8.18
2022-11-26T10:19:50.519Z,8.20
2022-11-26T10:20:50.463Z,8.26
2022-11-26T10:21:59.289Z,8.30
2022-11-26T10:22:55.524Z,8.40
2022-11-26T10:23:50.381Z,8.44
2022-11-26T10:24:50.403Z,8.40
2022-11-26T10:25:50.401Z,8.54
2022-11-26T10:26:50.348Z,8.44
2022-11-26T10:27:50.363Z,8.53
2022-11-26T10:28:50.331Z,8.71
2022-11-26T10:29:50.310Z,8.75
2022-11-26T10:30:50.651Z,8.91
2022-11-26T10:31:50.398Z,9.12
2022-11-26T10:32:50.284Z,9.12
2022-11-26T10:33:50.291Z,9.12
2022-11-26T10:34:50.259Z,9.18
2022-11-26T10:35:50.272Z,9.15
2022-11-26T10:36:50.299Z,9.15
2022-11-26T10:37:50.271Z,9.30
2022-11-26T10:38:50.226Z,9.40
2022-11-26T10:39:52.897Z,9.46
2022-11-26T10:40:50.219Z,9.35
2022-11-26T10:41:50.190Z,9.39
2022-11-26T10:42:50.283Z,9.42
2022-11-26T10:43:50.219Z,9.46
2022-11-26T10:44:50.158Z,9.42
2022-11-26T10:45:51.044Z,9.53
2022-11-26T10:46:50.186Z,9.61
2022-11-26T10:47:50.140Z,9.48
2022-11-26T10:48:50.478Z,9.42
2022-11-26T10:49:50.129Z,9.48
2022-11-26T10:50:50.157Z,9.50
2022-11-26T10:51:50.078Z,9.61
2022-11-26T10:52:50.115Z,9.70
2022-11-26T10:53:50.083Z,9.67
2022-11-26T10:54:50.152Z,9.64
2022-11-26T10:55:50.096Z,9.67
2022-11-26T10:56:50.012Z,9.66
2022-11-26T10:57:50.045Z,9.61
2022-11-26T10:58:50.087Z,9.35
2022-11-26T10:59:50.017Z,9.31
2022-11-26T11:00:50.084Z,9.32
2022-11-26T11:01:51.640Z,9.32
2022-11-26T11:02:49.978Z,9.38
2022-11-26T11:04:49.952Z,9.35
2022-11-26T11:05:49.965Z,9.40
2022-11-26T11:06:49.950Z,9.46
2022-11-26T11:07:50.279Z,9.56
2022-11-26T11:08:49.892Z,9.52
2022-11-26T11:09:49.893Z,9.43
2022-11-26T11:10:49.868Z,9.42
2022-11-26T11:11:49.869Z,9.38
2022-11-26T11:12:49.907Z,9.40
2022-11-26T11:13:49.856Z,9.42
2022-11-26T11:14:50.358Z,9.45
2022-11-26T11:15:49.856Z,9.48
2022-11-26T11:16:49.867Z,9.56
2022-11-26T11:17:49.806Z,9.56
2022-11-26T11:18:49.858Z,9.46
2022-11-26T11:19:49.786Z,9.53
2022-11-26T11:20:50.076Z,9.52
2022-11-26T11:21:49.765Z,9.48
2022-11-26T11:22:51.876Z,9.49
2022-11-26T11:24:08.095Z,9.49
2022-11-26T11:24:49.772Z,9.56
2022-11-26T11:25:49.730Z,9.58
2022-11-26T11:26:49.694Z,9.56
2022-11-26T11:27:49.959Z,9.52
2022-11-26T11:28:49.684Z,9.52
2022-11-26T11:29:49.684Z,9.52
2022-11-26T11:30:49.708Z,9.50
2022-11-26T11:31:49.754Z,9.52
2022-11-26T11:32:49.637Z,9.61
2022-11-26T11:33:49.638Z,9.67
2022-11-26T11:34:49.912Z,9.83
2022-11-26T11:35:49.608Z,9.89
2022-11-26T11:36:49.667Z,9.96
2022-11-26T11:37:49.593Z,10.09
2022-11-26T11:38:49.611Z,10.12
2022-11-26T11:39:49.587Z,10.18
2022-11-26T11:40:49.543Z,10.15
2022-11-26T11:41:49.579Z,10.19
2022-11-26T11:42:49.591Z,10.14
2022-11-26T11:43:49.558Z,10.18
2022-11-26T11:44:49.535Z,10.09
2022-11-26T11:45:53.140Z,9.93
2022-11-26T11:46:49.514Z,9.82
2022-11-26T11:47:49.794Z,9.86
2022-11-26T11:48:49.552Z,9.94
2022-11-26T11:49:49.528Z,9.96
2022-11-26T11:50:49.447Z,9.94
2022-11-26T11:51:49.510Z,10.04
2022-11-26T11:52:49.443Z,10.12
2022-11-26T11:53:49.435Z,10.17
2022-11-26T11:54:49.512Z,10.33
2022-11-26T11:55:49.481Z,10.37
2022-11-26T11:56:49.393Z,10.37
2022-11-26T11:57:49.409Z,10.40
2022-11-26T11:58:49.363Z,10.44
2022-11-26T11:59:49.671Z,10.44
2022-11-26T12:00:49.376Z,10.46
2022-11-26T12:01:49.377Z,10.63
2022-11-26T12:02:49.365Z,10.73
2022-11-26T12:03:49.368Z,10.96
2022-11-26T12:04:49.361Z,11.20
2022-11-26T12:05:49.306Z,11.43
2022-11-26T12:06:49.316Z,11.47
2022-11-26T12:07:49.362Z,11.47
2022-11-26T12:08:49.271Z,11.50
2022-11-26T12:09:49.286Z,11.67
2022-11-26T12:10:49.270Z,11.67
2022-11-26T12:11:49.512Z,11.54
2022-11-26T12:12:49.269Z,11.46
2022-11-26T12:13:49.218Z,11.38
2022-11-26T12:14:49.205Z,11.34
2022-11-26T12:15:49.252Z,11.46
2022-11-26T12:16:49.298Z,11.59
2022-11-26T12:17:49.169Z,11.72
2022-11-26T12:18:49.492Z,11.90
2022-11-26T12:19:49.217Z,11.96
2022-11-26T12:20:49.151Z,12.05
2022-11-26T12:21:49.174Z,12.08
2022-11-26T12:22:49.112Z,12.04
2022-11-26T12:23:49.112Z,12.01
2022-11-26T12:24:49.140Z,11.82
2022-11-26T12:25:49.071Z,11.65
2022-11-26T12:26:49.072Z,11.53
2022-11-26T12:27:49.063Z,11.44
2022-11-26T12:28:51.426Z,11.28
2022-11-26T12:29:49.064Z,11.24
2022-11-26T12:30:49.071Z,11.19
2022-11-26T12:31:49.377Z,11.13
2022-11-26T12:32:49.013Z,10.99
2022-11-26T12:33:49.010Z,10.92
2022-11-26T12:34:48.981Z,10.89
2022-11-26T12:35:48.985Z,10.83
2022-11-26T12:36:49.011Z,10.71
2022-11-26T12:37:48.955Z,10.62
2022-11-26T12:38:49.265Z,10.60
2022-11-26T12:39:53.682Z,10.63
2022-11-26T12:40:48.948Z,10.63
2022-11-26T12:41:48.934Z,10.62
2022-11-26T12:42:48.954Z,10.63
2022-11-26T12:43:48.896Z,10.65
2022-11-26T12:44:48.946Z,10.63
2022-11-26T12:45:48.898Z,10.63
2022-11-26T12:46:48.918Z,10.63
2022-11-26T12:47:48.844Z,10.59
2022-11-26T12:48:48.895Z,10.53
2022-11-26T12:49:48.919Z,10.51
2022-11-26T12:50:48.834Z,10.51
2022-11-26T12:51:49.121Z,10.46
2022-11-26T12:52:48.816Z,10.47
2022-11-26T12:53:48.844Z,10.47
2022-11-26T12:54:48.870Z,10.44
2022-11-26T12:55:48.866Z,10.40
2022-11-26T12:56:48.772Z,10.37
2022-11-26T12:57:48.878Z,10.34
2022-11-26T12:58:48.780Z,10.34
2022-11-26T12:59:48.710Z,10.32
2022-11-26T13:00:48.807Z,10.32
2022-11-26T13:01:48.760Z,10.33
2022-11-26T13:02:48.770Z,10.34
2022-11-26T13:03:48.756Z,10.37
2022-11-26T13:04:48.694Z,10.40
2022-11-26T13:05:51.639Z,10.46
2022-11-26T13:06:48.761Z,10.47
2022-11-26T13:07:48.679Z,10.51
2022-11-26T13:08:48.651Z,10.46
2022-11-26T13:09:48.986Z,10.39
2022-11-26T13:10:48.624Z,10.39
2022-11-26T13:11:48.618Z,10.37
2022-11-26T13:12:48.687Z,10.40
2022-11-26T13:13:48.722Z,10.42
2022-11-26T13:14:48.594Z,10.43
2022-11-26T13:15:48.559Z,10.44
2022-11-26T13:16:48.866Z,10.47
2022-11-26T13:17:49.126Z,10.46